Time;durP1;ratioP1;P1;durP2;ratioP2;P2;SDS_P1;SDS_P2;PMS_P1;PMS_P2;Temp;Humidity;BMP_temperature;BMP_pressure;BME280_temperature;BME280_humidity;BME280_pressure;Samples;Min_cycle;Max_cycle;Signal;HPM_P1;HPM_P2
2020/12/26 00:01:27;;;;;;;7.35;3.88;;;;;;;;;;5070060;28;20415;-79
2020/12/26 00:03:53;;;;;;;7.47;4.28;;;;;;;;;;5062503;28;20459;-76
2020/12/26 00:06:20;;;;;;;5.95;3.60;;;;;;;;;;5043801;28;20384;-78
2020/12/26 00:08:46;;;;;;;7.72;4.18;;;;;;;;;;5040988;28;20741;-77
2020/12/26 00:11:13;;;;;;;6.78;3.78;;;;;;;;;;5059338;28;20368;-77
2020/12/26 00:13:39;;;;;;;7.95;4.10;;;;;;;;;;5060353;28;20385;-78
2020/12/26 00:16:06;;;;;;;8.02;3.80;;;;;;;;;;5070411;28;20454;-79
2020/12/26 00:18:32;;;;;;;7.22;4.15;;;;;;;;;;5059178;28;20927;-78
2020/12/26 00:20:59;;;;;;;8.13;4.07;;;;;;;;;;5040442;28;20374;-76
2020/12/26 00:23:25;;;;;;;8.83;4.30;;;;;;;;;;5063458;28;20496;-78
2020/12/26 00:25:51;;;;;;;10.23;4.68;;;;;;;;;;5071081;28;20852;-78
2020/12/26 00:28:17;;;;;;;9.65;4.40;;;;;;;;;;5070523;28;20872;-78
2020/12/26 00:30:43;;;;;;;8.43;4.17;;;;;;;;;;5052212;28;20425;-77
2020/12/26 00:33:09;;;;;;;8.32;3.97;;;;;;;;;;5070251;28;20374;-79
2020/12/26 00:35:35;;;;;;;9.50;4.32;;;;;;;;;;5069772;28;20411;-77
2020/12/26 00:38:01;;;;;;;8.40;4.32;;;;;;;;;;5051856;28;20725;-78
2020/12/26 00:40:27;;;;;;;7.20;4.10;;;;;;;;;;5051803;28;20401;-80
2020/12/26 00:42:53;;;;;;;7.47;3.90;;;;;;;;;;5070935;28;20366;-78
2020/12/26 00:45:19;;;;;;;9.10;3.65;;;;;;;;;;5070626;28;20370;-77
2020/12/26 00:47:45;;;;;;;6.60;3.97;;;;;;;;;;5065623;28;20372;-82
2020/12/26 00:50:11;;;;;;;7.65;3.92;;;;;;;;;;5050373;28;20711;-77
2020/12/26 00:52:37;;;;;;;9.52;4.22;;;;;;;;;;5050740;28;20905;-77
2020/12/26 00:55:03;;;;;;;5.97;3.78;;;;;;;;;;5038497;28;20387;-80
2020/12/26 00:57:29;;;;;;;7.25;4.00;;;;;;;;;;5058929;28;20363;-77
2020/12/26 00:59:55;;;;;;;9.32;3.33;;;;;;;;;;5064683;28;20853;-77
2020/12/26 01:02:21;;;;;;;6.27;3.70;;;;;;;;;;5053187;28;20370;-78
2020/12/26 01:04:47;;;;;;;6.18;3.58;;;;;;;;;;5071373;28;20410;-77
2020/12/26 01:07:13;;;;;;;7.18;3.63;;;;;;;;;;5071456;28;20736;-77
2020/12/26 01:09:39;;;;;;;7.50;3.70;;;;;;;;;;5071363;28;20420;-77
2020/12/26 01:12:05;;;;;;;9.18;3.58;;;;;;;;;;5053556;28;20401;-77
2020/12/26 01:14:31;;;;;;;7.80;3.78;;;;;;;;;;5041248;28;20819;-78
2020/12/26 01:16:57;;;;;;;6.97;4.07;;;;;;;;;;5041573;28;21195;-77
2020/12/26 01:19:23;;;;;;;6.22;3.50;;;;;;;;;;5059774;28;20366;-77
2020/12/26 01:21:51;;;;;;;7.40;4.20;;;;;;;;;;5042779;28;20414;-78
2020/12/26 01:24:18;;;;;;;7.53;3.53;;;;;;;;;;5040066;28;20452;-77
2020/12/26 01:26:45;;;;;;;6.72;3.40;;;;;;;;;;5060189;28;20380;-76
2020/12/26 01:29:11;;;;;;;6.13;3.60;;;;;;;;;;5059384;28;20391;-78
2020/12/26 01:31:37;;;;;;;7.13;3.70;;;;;;;;;;5060600;28;20354;-77
2020/12/26 01:34:03;;;;;;;5.75;3.58;;;;;;;;;;5042159;28;20701;-78
2020/12/26 01:36:29;;;;;;;7.97;3.47;;;;;;;;;;5041052;28;20384;-77
2020/12/26 01:38:55;;;;;;;7.00;3.35;;;;;;;;;;5060989;28;20462;-78
2020/12/26 01:41:21;;;;;;;6.07;3.00;;;;;;;;;;5059378;28;20758;-78
2020/12/26 01:43:54;;;;;;;5.82;3.33;;;;;;;;;;5041082;28;20397;-77
2020/12/26 01:46:21;;;;;;;6.50;3.00;;;;;;;;;;5073304;28;20416;-77
2020/12/26 01:48:47;;;;;;;6.40;3.22;;;;;;;;;;5042778;28;20374;-76
2020/12/26 01:51:13;;;;;;;8.48;3.63;;;;;;;;;;5038376;28;20485;-77
2020/12/26 01:53:39;;;;;;;6.70;3.53;;;;;;;;;;5031378;28;20383;-78
2020/12/26 01:56:06;;;;;;;6.07;3.17;;;;;;;;;;5049601;28;20941;-78
2020/12/26 01:58:35;;;;;;;6.80;3.40;;;;;;;;;;5031267;28;20372;-78
2020/12/26 02:01:01;;;;;;;8.73;3.20;;;;;;;;;;5048919;28;21160;-78
2020/12/26 02:03:27;;;;;;;6.07;3.10;;;;;;;;;;5048893;28;20400;-79
2020/12/26 02:05:55;;;;;;;6.00;3.20;;;;;;;;;;5049566;28;20391;-77
2020/12/26 02:08:21;;;;;;;5.78;3.20;;;;;;;;;;5031566;28;20447;-77
2020/12/26 02:10:47;;;;;;;6.28;3.00;;;;;;;;;;5050526;28;20399;-79
2020/12/26 02:13:13;;;;;;;10.57;3.67;;;;;;;;;;5050667;28;20439;-77
2020/12/26 02:15:39;;;;;;;6.32;2.80;;;;;;;;;;5050547;28;20446;-77
2020/12/26 02:18:05;;;;;;;6.20;3.00;;;;;;;;;;5050397;28;20383;-78
2020/12/26 02:20:31;;;;;;;6.15;2.83;;;;;;;;;;5050498;28;20367;-77
2020/12/26 02:22:57;;;;;;;5.90;3.00;;;;;;;;;;5050448;28;20352;-79
2020/12/26 02:25:23;;;;;;;6.82;3.47;;;;;;;;;;5050484;28;20508;-78
2020/12/26 02:27:49;;;;;;;6.10;2.90;;;;;;;;;;5050604;28;20403;-78
2020/12/26 02:30:15;;;;;;;5.50;2.93;;;;;;;;;;5050155;28;20364;-78
2020/12/26 02:32:41;;;;;;;4.55;2.75;;;;;;;;;;5055865;28;20441;-77
2020/12/26 02:35:07;;;;;;;5.78;2.75;;;;;;;;;;5057073;28;20399;-77
2020/12/26 02:37:33;;;;;;;4.55;2.67;;;;;;;;;;5057056;28;20363;-78
2020/12/26 02:39:58;;;;;;;5.35;2.67;;;;;;;;;;5056904;28;20900;-77
2020/12/26 02:42:24;;;;;;;5.70;2.90;;;;;;;;;;5039172;28;20886;-78
2020/12/26 02:44:51;;;;;;;4.00;2.50;;;;;;;;;;5056753;28;20869;-78
2020/12/26 02:47:17;;;;;;;4.65;2.75;;;;;;;;;;5057295;28;20402;-77
2020/12/26 02:49:43;;;;;;;4.22;2.28;;;;;;;;;;5056754;28;20402;-77
2020/12/26 02:52:09;;;;;;;5.80;2.90;;;;;;;;;;5057327;28;20367;-77
2020/12/26 02:54:35;;;;;;;6.25;2.92;;;;;;;;;;5057225;28;20380;-78
2020/12/26 02:57:01;;;;;;;4.25;2.40;;;;;;;;;;5057053;28;20478;-77
2020/12/26 02:59:27;;;;;;;6.00;2.40;;;;;;;;;;5056661;28;20839;-79
2020/12/26 03:01:53;;;;;;;4.73;2.50;;;;;;;;;;5057284;28;20417;-79
2020/12/26 03:04:19;;;;;;;5.10;2.40;;;;;;;;;;5038987;28;20395;-77
2020/12/26 03:06:45;;;;;;;4.72;2.60;;;;;;;;;;5057069;28;20356;-77
2020/12/26 03:09:11;;;;;;;3.97;2.70;;;;;;;;;;5056885;28;20575;-77
2020/12/26 03:11:37;;;;;;;4.07;2.20;;;;;;;;;;5056848;28;20910;-78
2020/12/26 03:14:03;;;;;;;5.95;2.60;;;;;;;;;;5056714;28;20370;-76
2020/12/26 03:16:29;;;;;;;5.13;2.53;;;;;;;;;;5056717;28;20380;-77
2020/12/26 03:18:55;;;;;;;4.88;2.60;;;;;;;;;;5038711;28;20403;-77
2020/12/26 03:21:21;;;;;;;4.20;2.30;;;;;;;;;;5056499;28;20425;-79
2020/12/26 03:23:47;;;;;;;4.63;2.60;;;;;;;;;;5038693;28;20394;-78
2020/12/26 03:26:13;;;;;;;6.38;2.70;;;;;;;;;;5056666;28;20352;-78
2020/12/26 03:28:39;;;;;;;7.00;2.63;;;;;;;;;;5038740;28;20442;-79
2020/12/26 03:31:05;;;;;;;5.38;2.67;;;;;;;;;;5056599;28;20835;-78
2020/12/26 03:33:31;;;;;;;4.72;2.38;;;;;;;;;;5038827;28;20363;-78
2020/12/26 03:35:57;;;;;;;5.43;2.70;;;;;;;;;;5038680;28;20700;-78
2020/12/26 03:38:23;;;;;;;3.80;2.63;;;;;;;;;;5038805;28;20422;-77
2020/12/26 03:40:49;;;;;;;3.97;2.45;;;;;;;;;;5056487;28;20376;-78
2020/12/26 03:43:15;;;;;;;4.93;2.50;;;;;;;;;;5036571;28;20432;-78
2020/12/26 03:45:41;;;;;;;5.68;2.75;;;;;;;;;;5053695;28;20376;-77
2020/12/26 03:48:07;;;;;;;5.10;2.40;;;;;;;;;;5053447;28;20367;-78
2020/12/26 03:50:33;;;;;;;5.22;2.35;;;;;;;;;;5035445;28;20372;-77
2020/12/26 03:52:59;;;;;;;5.30;2.70;;;;;;;;;;5053220;28;20371;-78
2020/12/26 03:55:25;;;;;;;6.07;2.40;;;;;;;;;;5035337;28;20419;-77
2020/12/26 03:57:51;;;;;;;4.78;2.70;;;;;;;;;;5053175;28;20367;-78
2020/12/26 04:00:17;;;;;;;4.63;2.40;;;;;;;;;;5052887;28;20363;-78
2020/12/26 04:02:43;;;;;;;3.97;2.30;;;;;;;;;;5052855;28;20417;-77
2020/12/26 04:05:09;;;;;;;5.93;2.28;;;;;;;;;;5034891;28;20407;-77
2020/12/26 04:07:35;;;;;;;4.07;2.30;;;;;;;;;;5035010;28;20412;-77
2020/12/26 04:10:01;;;;;;;6.88;2.90;;;;;;;;;;5052950;28;20356;-77
2020/12/26 04:12:27;;;;;;;5.63;2.30;;;;;;;;;;5034818;28;20908;-79
2020/12/26 04:14:53;;;;;;;5.63;2.50;;;;;;;;;;5053024;28;20351;-78
2020/12/26 04:17:22;;;;;;;5.00;2.72;;;;;;;;;;5035160;28;20406;-78
2020/12/26 04:19:49;;;;;;;4.70;2.30;;;;;;;;;;5052568;28;20356;-78
2020/12/26 04:22:15;;;;;;;6.70;2.80;;;;;;;;;;5034983;28;20813;-77
2020/12/26 04:24:41;;;;;;;7.38;2.85;;;;;;;;;;5034567;28;20399;-77
2020/12/26 04:27:07;;;;;;;6.05;2.92;;;;;;;;;;5034508;28;20367;-77
2020/12/26 04:29:33;;;;;;;5.95;3.00;;;;;;;;;;5052693;28;20490;-78
2020/12/26 04:31:59;;;;;;;4.17;2.43;;;;;;;;;;5052561;28;20372;-76
2020/12/26 04:34:25;;;;;;;5.88;2.53;;;;;;;;;;5052396;28;20372;-76
2020/12/26 04:36:51;;;;;;;3.75;2.38;;;;;;;;;;5034864;28;20375;-78
2020/12/26 04:39:16;;;;;;;4.45;2.72;;;;;;;;;;5052612;28;20371;-77
2020/12/26 04:41:42;;;;;;;4.95;2.72;;;;;;;;;;5052199;28;20926;-77
2020/12/26 04:44:10;;;;;;;5.03;2.47;;;;;;;;;;5034410;28;20400;-77
2020/12/26 04:46:39;;;;;;;6.35;2.60;;;;;;;;;;5052427;28;20357;-77
2020/12/26 04:49:06;;;;;;;5.40;2.70;;;;;;;;;;5034255;28;20410;-78
2020/12/26 04:51:33;;;;;;;5.05;2.75;;;;;;;;;;5034278;28;20712;-77
2020/12/26 04:54:06;;;;;;;6.10;2.87;;;;;;;;;;5033618;28;20421;-78
2020/12/26 04:56:38;;;;;;;5.43;2.55;;;;;;;;;;5051784;28;20786;-77
2020/12/26 04:59:04;;;;;;;4.38;2.30;;;;;;;;;;5034216;28;20395;-79
2020/12/26 05:01:33;;;;;;;5.28;2.65;;;;;;;;;;5052261;28;20368;-77
2020/12/26 05:04:00;;;;;;;6.57;2.93;;;;;;;;;;5033671;28;20792;-77
2020/12/26 05:06:27;;;;;;;6.05;2.78;;;;;;;;;;5051842;28;20360;-79
2020/12/26 05:08:53;;;;;;;4.88;2.90;;;;;;;;;;5033837;28;20364;-76
2020/12/26 05:11:22;;;;;;;5.07;2.80;;;;;;;;;;5051812;28;20791;-75
2020/12/26 05:13:48;;;;;;;5.40;2.67;;;;;;;;;;5033828;28;20390;-78
2020/12/26 05:16:14;;;;;;;4.45;2.53;;;;;;;;;;5033963;28;20992;-75
2020/12/26 05:18:40;;;;;;;6.60;3.30;;;;;;;;;;5052060;28;20874;-79
2020/12/26 05:21:06;;;;;;;5.78;3.65;;;;;;;;;;5033453;28;20372;-79
2020/12/26 05:23:34;;;;;;;6.30;3.90;;;;;;;;;;5051580;28;20402;-78
2020/12/26 05:26:00;;;;;;;5.57;3.67;;;;;;;;;;5033553;28;20371;-78
2020/12/26 05:28:31;;;;;;;7.27;4.07;;;;;;;;;;5033604;28;20432;-78
2020/12/26 05:30:57;;;;;;;7.15;3.90;;;;;;;;;;5033513;28;20375;-78
2020/12/26 05:33:23;;;;;;;6.68;4.35;;;;;;;;;;5051470;28;20363;-78
2020/12/26 05:35:50;;;;;;;7.30;4.20;;;;;;;;;;5051317;28;20368;-77
2020/12/26 05:38:16;;;;;;;8.43;5.80;;;;;;;;;;5051582;28;20378;-78
2020/12/26 05:40:52;;;;;;;13.90;9.60;;;;;;;;;;5051363;28;20838;-78
2020/12/26 05:43:19;;;;;;;13.07;9.20;;;;;;;;;;5051099;28;20925;-77
2020/12/26 05:45:46;;;;;;;18.75;12.20;;;;;;;;;;5033287;28;20379;-79
2020/12/26 05:48:13;;;;;;;18.98;13.70;;;;;;;;;;5051156;28;20371;-78
2020/12/26 05:50:39;;;;;;;17.83;13.73;;;;;;;;;;5032743;28;21077;-77
2020/12/26 05:53:09;;;;;;;16.92;13.93;;;;;;;;;;5033208;28;20406;-78
2020/12/26 05:55:36;;;;;;;15.93;13.05;;;;;;;;;;5033252;28;20371;-77
2020/12/26 05:58:02;;;;;;;17.00;13.15;;;;;;;;;;5033302;28;20375;-78
2020/12/26 06:00:36;;;;;;;19.10;13.38;;;;;;;;;;5032863;28;20410;-78
2020/12/26 06:03:20;;;;;;;16.30;12.38;;;;;;;;;;5050756;28;20715;-78
2020/12/26 06:05:49;;;;;;;16.70;12.50;;;;;;;;;;5050624;28;20380;-79
2020/12/26 06:08:16;;;;;;;21.08;17.05;;;;;;;;;;5050514;28;20772;-77
2020/12/26 06:10:47;;;;;;;21.67;16.33;;;;;;;;;;5050776;28;20494;-78
2020/12/26 06:13:15;;;;;;;23.98;17.35;;;;;;;;;;5050760;28;20493;-77
2020/12/26 06:15:42;;;;;;;25.25;20.45;;;;;;;;;;5032845;28;20395;-78
2020/12/26 06:18:11;;;;;;;34.42;22.75;;;;;;;;;;5051203;28;20746;-78
2020/12/26 06:20:38;;;;;;;30.13;21.95;;;;;;;;;;5050894;28;20370;-77
2020/12/26 06:23:04;;;;;;;28.15;21.75;;;;;;;;;;5032675;28;20383;-79
2020/12/26 06:25:30;;;;;;;30.13;23.55;;;;;;;;;;5032841;28;20368;-77
2020/12/26 06:27:56;;;;;;;31.33;23.50;;;;;;;;;;5050668;28;20443;-78
2020/12/26 06:30:22;;;;;;;32.35;24.17;;;;;;;;;;5032897;28;21005;-78
2020/12/26 06:32:49;;;;;;;35.30;25.40;;;;;;;;;;5050786;28;20441;-77
2020/12/26 06:35:15;;;;;;;35.05;26.95;;;;;;;;;;5050647;28;20379;-78
2020/12/26 06:37:41;;;;;;;37.58;26.65;;;;;;;;;;5050851;28;20375;-78
2020/12/26 06:40:26;;;;;;;34.55;26.77;;;;;;;;;;5050100;28;20447;-78
2020/12/26 06:42:52;;;;;;;36.97;27.17;;;;;;;;;;5050391;28;20364;-79
2020/12/26 06:45:30;;;;;;;40.30;28.58;;;;;;;;;;5032486;28;20882;-79
2020/12/26 06:47:56;;;;;;;37.38;27.98;;;;;;;;;;5050101;28;20367;-78
2020/12/26 06:50:23;;;;;;;35.80;27.95;;;;;;;;;;5049613;28;20443;-78
2020/12/26 06:52:50;;;;;;;42.65;28.98;;;;;;;;;;5050570;28;20878;-79
2020/12/26 06:55:34;;;;;;;40.05;30.13;;;;;;;;;;5050563;28;20433;-78
2020/12/26 06:58:00;;;;;;;40.03;28.02;;;;;;;;;;5050198;28;20454;-78
2020/12/26 07:00:27;;;;;;;41.90;29.90;;;;;;;;;;5050365;28;20439;-77
2020/12/26 07:03:14;;;;;;;42.75;30.45;;;;;;;;;;5032219;28;20360;-78
2020/12/26 07:05:40;;;;;;;47.53;31.60;;;;;;;;;;5032304;28;20392;-77
2020/12/26 07:08:06;;;;;;;43.20;30.38;;;;;;;;;;5050391;28;20712;-78
2020/12/26 07:10:35;;;;;;;48.55;32.83;;;;;;;;;;5050037;28;20443;-79
2020/12/26 07:13:01;;;;;;;49.85;32.40;;;;;;;;;;5050032;28;20364;-76
2020/12/26 07:15:36;;;;;;;43.15;30.85;;;;;;;;;;5032197;28;20379;-76
2020/12/26 07:18:21;;;;;;;53.05;33.10;;;;;;;;;;5051110;28;20395;-78
2020/12/26 07:20:54;;;;;;;50.33;33.17;;;;;;;;;;5053681;28;20478;-79
2020/12/26 07:23:20;;;;;;;50.97;33.80;;;;;;;;;;5035785;28;20870;-76
2020/12/26 07:25:48;;;;;;;51.83;33.47;;;;;;;;;;5035934;28;20379;-75
2020/12/26 07:28:14;;;;;;;53.50;32.72;;;;;;;;;;5053693;28;20446;-79
2020/12/26 07:30:40;;;;;;;45.40;31.75;;;;;;;;;;5053804;28;20834;-78
2020/12/26 07:33:06;;;;;;;47.65;30.35;;;;;;;;;;5053708;28;20371;-79
2020/12/26 07:35:35;;;;;;;40.80;29.50;;;;;;;;;;5053785;28;20356;-78
2020/12/26 07:38:11;;;;;;;46.13;31.13;;;;;;;;;;5053574;28;20360;-78
2020/12/26 07:40:46;;;;;;;42.00;30.67;;;;;;;;;;5035509;28;20368;-75
2020/12/26 07:43:16;;;;;;;42.13;29.73;;;;;;;;;;5053547;28;20360;-75
2020/12/26 07:45:43;;;;;;;43.10;26.77;;;;;;;;;;5053479;28;20359;-78
2020/12/26 07:48:09;;;;;;;39.85;29.63;;;;;;;;;;5053395;28;20363;-78
2020/12/26 07:50:37;;;;;;;37.23;27.93;;;;;;;;;;5053250;28;20481;-75
2020/12/26 07:53:08;;;;;;;40.75;27.48;;;;;;;;;;5053334;28;20399;-78
2020/12/26 07:55:34;;;;;;;39.90;27.67;;;;;;;;;;5035057;28;20407;-78
2020/12/26 07:58:01;;;;;;;39.63;27.65;;;;;;;;;;5053407;28;20368;-75
2020/12/26 08:00:29;;;;;;;39.43;27.80;;;;;;;;;;5052934;28;20359;-74
2020/12/26 08:02:56;;;;;;;41.88;27.83;;;;;;;;;;5035258;28;20376;-78
2020/12/26 08:05:23;;;;;;;37.90;26.67;;;;;;;;;;5035127;28;20438;-78
2020/12/26 08:07:49;;;;;;;37.92;26.30;;;;;;;;;;5052995;28;20770;-75
2020/12/26 08:10:17;;;;;;;37.47;25.25;;;;;;;;;;5053041;28;20360;-75
2020/12/26 08:12:54;;;;;;;35.53;24.95;;;;;;;;;;5035341;28;20364;-77
2020/12/26 08:15:21;;;;;;;35.97;25.10;;;;;;;;;;5034922;28;20379;-74
2020/12/26 08:17:47;;;;;;;36.33;25.45;;;;;;;;;;5052807;28;20359;-76
2020/12/26 08:20:15;;;;;;;36.17;25.57;;;;;;;;;;5052505;28;20476;-75
2020/12/26 08:22:43;;;;;;;36.78;25.45;;;;;;;;;;5052451;28;20704;-77
2020/12/26 08:25:12;;;;;;;35.50;25.98;;;;;;;;;;5034835;28;20408;-75
2020/12/26 08:27:39;;;;;;;37.13;25.90;;;;;;;;;;5052912;28;20391;-77
2020/12/26 08:30:15;;;;;;;38.45;26.45;;;;;;;;;;5033502;28;20371;-75
2020/12/26 08:32:47;;;;;;;37.95;26.92;;;;;;;;;;5052405;28;20360;-76
2020/12/26 08:35:13;;;;;;;36.13;26.35;;;;;;;;;;5052638;28;20432;-75
2020/12/26 08:37:42;;;;;;;35.97;26.05;;;;;;;;;;5034670;28;20376;-79
2020/12/26 08:40:15;;;;;;;37.47;27.17;;;;;;;;;;5052322;28;20356;-78
2020/12/26 08:42:41;;;;;;;37.63;25.92;;;;;;;;;;5034263;28;20414;-76
2020/12/26 08:45:23;;;;;;;38.90;26.40;;;;;;;;;;5052072;28;20724;-76
2020/12/26 08:47:50;;;;;;;38.72;26.05;;;;;;;;;;5052365;28;21174;-78
2020/12/26 08:50:16;;;;;;;37.28;26.17;;;;;;;;;;5034099;28;20368;-77
2020/12/26 08:52:43;;;;;;;33.47;24.30;;;;;;;;;;5034258;28;20364;-77
2020/12/26 08:55:09;;;;;;;37.80;23.45;;;;;;;;;;5034204;28;20376;-77
2020/12/26 08:57:36;;;;;;;32.63;23.45;;;;;;;;;;5051985;28;20501;-78
2020/12/26 09:00:18;;;;;;;35.80;23.25;;;;;;;;;;5051639;28;20367;-78
2020/12/26 09:02:45;;;;;;;34.45;23.52;;;;;;;;;;5034060;28;20364;-77
2020/12/26 09:05:20;;;;;;;29.88;22.58;;;;;;;;;;5051888;28;20480;-78
2020/12/26 09:07:46;;;;;;;29.80;23.23;;;;;;;;;;5052187;28;20363;-77
2020/12/26 09:10:12;;;;;;;31.60;23.27;;;;;;;;;;5051545;28;20429;-78
2020/12/26 09:12:38;;;;;;;31.23;22.65;;;;;;;;;;5051720;28;20486;-78
2020/12/26 09:15:04;;;;;;;33.10;22.95;;;;;;;;;;5051879;28;20356;-77
2020/12/26 09:17:30;;;;;;;31.38;22.48;;;;;;;;;;5034110;28;20402;-76
2020/12/26 09:19:58;;;;;;;31.80;22.58;;;;;;;;;;5033527;28;20375;-78
2020/12/26 09:22:28;;;;;;;30.95;21.85;;;;;;;;;;5051609;28;20352;-77
2020/12/26 09:24:54;;;;;;;32.75;23.25;;;;;;;;;;5051512;28;20391;-78
2020/12/26 09:27:21;;;;;;;30.05;23.27;;;;;;;;;;5051713;28;20366;-77
2020/12/26 09:29:51;;;;;;;27.13;21.92;;;;;;;;;;5051381;28;20395;-78
2020/12/26 09:32:18;;;;;;;29.25;22.48;;;;;;;;;;5051410;28;20753;-78
2020/12/26 09:34:44;;;;;;;29.00;23.02;;;;;;;;;;5033636;28;20378;-79
2020/12/26 09:37:10;;;;;;;29.35;22.52;;;;;;;;;;5033896;28;20364;-79
2020/12/26 09:39:37;;;;;;;31.10;23.23;;;;;;;;;;5033127;28;20379;-79
2020/12/26 09:42:03;;;;;;;31.58;24.23;;;;;;;;;;5051832;28;20367;-78
2020/12/26 09:44:29;;;;;;;33.03;24.13;;;;;;;;;;5061195;28;20803;-82
2020/12/26 09:47:02;;;;;;;33.30;24.48;;;;;;;;;;5072077;28;20897;-80
2020/12/26 09:49:28;;;;;;;32.50;23.00;;;;;;;;;;5052829;28;20369;-78
2020/12/26 09:51:54;;;;;;;33.38;23.45;;;;;;;;;;5051044;28;20490;-76
2020/12/26 09:54:20;;;;;;;35.15;25.02;;;;;;;;;;5050832;28;20779;-76
2020/12/26 09:56:46;;;;;;;33.20;24.10;;;;;;;;;;5050915;28;20409;-77
2020/12/26 09:59:12;;;;;;;32.08;24.25;;;;;;;;;;5032803;28;20382;-79
2020/12/26 10:01:39;;;;;;;33.20;25.05;;;;;;;;;;5033689;28;20708;-77
2020/12/26 10:04:05;;;;;;;32.50;24.27;;;;;;;;;;5052633;28;20406;-76
2020/12/26 10:06:31;;;;;;;34.50;23.55;;;;;;;;;;5052621;28;20359;-77
2020/12/26 10:08:57;;;;;;;31.97;23.53;;;;;;;;;;5070063;28;20377;-79
2020/12/26 10:11:23;;;;;;;32.58;23.13;;;;;;;;;;5070165;28;20366;-79
2020/12/26 10:13:49;;;;;;;33.80;23.42;;;;;;;;;;5057101;28;20390;-76
2020/12/26 10:16:16;;;;;;;29.95;22.92;;;;;;;;;;5069538;28;20381;-77
2020/12/26 10:18:42;;;;;;;27.33;21.55;;;;;;;;;;5068494;28;20745;-76
2020/12/26 10:21:08;;;;;;;29.50;21.60;;;;;;;;;;5068712;28;20411;-77
2020/12/26 10:23:34;;;;;;;27.13;20.45;;;;;;;;;;5051263;28;20402;-77
2020/12/26 10:26:07;;;;;;;26.73;20.60;;;;;;;;;;5069726;28;20424;-77
2020/12/26 10:28:33;;;;;;;25.33;20.13;;;;;;;;;;5068537;28;20376;-77
2020/12/26 10:31:00;;;;;;;27.38;20.52;;;;;;;;;;5046486;28;20472;-78
2020/12/26 10:33:26;;;;;;;25.63;20.17;;;;;;;;;;5058015;28;20411;-79
2020/12/26 10:35:52;;;;;;;28.27;21.30;;;;;;;;;;5039441;28;20445;-77
2020/12/26 10:38:18;;;;;;;26.77;21.33;;;;;;;;;;5041428;28;20474;-76
2020/12/26 10:40:44;;;;;;;24.40;19.73;;;;;;;;;;5058235;28;20375;-77
2020/12/26 10:43:10;;;;;;;25.00;19.83;;;;;;;;;;5040734;28;20378;-77
2020/12/26 10:45:36;;;;;;;30.02;20.58;;;;;;;;;;5058199;28;20441;-78
2020/12/26 10:48:02;;;;;;;26.17;20.58;;;;;;;;;;5059589;28;20362;-84
2020/12/26 10:50:28;;;;;;;25.10;20.35;;;;;;;;;;5044247;28;20406;-79
2020/12/26 10:52:54;;;;;;;25.43;19.60;;;;;;;;;;5044717;28;20378;-87
2020/12/26 10:55:20;;;;;;;23.75;18.35;;;;;;;;;;5045333;28;20443;-79
2020/12/26 10:57:46;;;;;;;25.30;17.92;;;;;;;;;;5047102;28;20377;-80
2020/12/26 11:00:12;;;;;;;23.13;18.07;;;;;;;;;;5045418;28;20381;-82
2020/12/26 11:02:39;;;;;;;23.55;17.50;;;;;;;;;;5046071;28;20464;-82
2020/12/26 11:05:06;;;;;;;23.50;18.13;;;;;;;;;;5048165;28;20489;-82
2020/12/26 11:07:32;;;;;;;20.88;17.33;;;;;;;;;;5048508;28;20407;-82
2020/12/26 11:09:58;;;;;;;21.15;18.20;;;;;;;;;;5061357;28;20372;-82
2020/12/26 11:12:24;;;;;;;23.90;18.98;;;;;;;;;;5064626;28;20413;-82
2020/12/26 11:14:50;;;;;;;21.70;18.80;;;;;;;;;;5045166;28;20374;-82
2020/12/26 11:17:16;;;;;;;23.83;19.73;;;;;;;;;;5046679;28;20381;-81
2020/12/26 11:19:44;;;;;;;26.13;19.88;;;;;;;;;;5065196;28;20403;-83
2020/12/26 11:22:10;;;;;;;25.80;18.92;;;;;;;;;;5048763;28;20393;-82
2020/12/26 11:24:36;;;;;;;22.70;19.10;;;;;;;;;;5062912;28;20411;-81
2020/12/26 11:27:02;;;;;;;26.05;19.23;;;;;;;;;;5061480;28;20874;-82
2020/12/26 11:29:30;;;;;;;22.42;17.70;;;;;;;;;;5046652;28;20461;-81
2020/12/26 11:32:00;;;;;;;21.75;19.00;;;;;;;;;;5048236;28;20496;-82
2020/12/26 11:34:26;;;;;;;22.50;18.48;;;;;;;;;;5044275;28;20378;-81
2020/12/26 11:37:01;;;;;;;23.02;18.75;;;;;;;;;;5066080;28;20370;-81
2020/12/26 11:39:29;;;;;;;25.60;20.00;;;;;;;;;;5062724;28;20762;-81
2020/12/26 11:41:55;;;;;;;24.20;19.13;;;;;;;;;;5062753;28;20438;-82
2020/12/26 11:44:21;;;;;;;25.27;19.52;;;;;;;;;;5061235;28;20826;-81
2020/12/26 11:46:47;;;;;;;19.67;16.98;;;;;;;;;;5045581;28;20451;-82
2020/12/26 11:49:15;;;;;;;22.27;16.98;;;;;;;;;;5046006;28;20471;-81
2020/12/26 11:51:42;;;;;;;19.33;15.35;;;;;;;;;;5043999;28;20384;-82
2020/12/26 11:54:08;;;;;;;19.58;15.35;;;;;;;;;;5046124;28;20505;-81
2020/12/26 11:56:34;;;;;;;18.73;14.70;;;;;;;;;;5048148;28;20371;-83
2020/12/26 11:59:00;;;;;;;23.13;15.32;;;;;;;;;;5061210;28;20495;-82
2020/12/26 12:01:29;;;;;;;18.27;15.07;;;;;;;;;;5043370;28;20368;-82
2020/12/26 12:03:55;;;;;;;19.27;14.53;;;;;;;;;;5061278;28;20452;-81
2020/12/26 12:06:21;;;;;;;19.33;14.32;;;;;;;;;;5044448;28;20364;-81
2020/12/26 12:08:47;;;;;;;14.88;12.82;;;;;;;;;;5044865;28;20423;-81
2020/12/26 12:11:16;;;;;;;18.05;13.98;;;;;;;;;;5043463;28;20379;-81
2020/12/26 12:13:42;;;;;;;18.95;13.85;;;;;;;;;;5061368;28;20383;-83
2020/12/26 12:16:12;;;;;;;18.23;13.93;;;;;;;;;;5063101;28;20374;-83
2020/12/26 12:18:38;;;;;;;18.33;13.70;;;;;;;;;;5043246;28;20454;-86
2020/12/26 12:21:04;;;;;;;16.02;13.43;;;;;;;;;;5042684;28;20401;-81
2020/12/26 12:23:30;;;;;;;16.65;13.05;;;;;;;;;;5042429;28;20380;-82
2020/12/26 12:25:56;;;;;;;20.27;14.55;;;;;;;;;;5062016;28;20923;-82
2020/12/26 12:28:22;;;;;;;20.48;15.07;;;;;;;;;;5046755;28;20384;-80
2020/12/26 12:30:48;;;;;;;18.30;14.30;;;;;;;;;;5042624;28;20389;-82
2020/12/26 12:33:14;;;;;;;18.77;15.50;;;;;;;;;;5044151;28;20383;-80
2020/12/26 12:35:40;;;;;;;19.50;14.82;;;;;;;;;;5056386;28;20363;-81
2020/12/26 12:38:06;;;;;;;21.38;14.75;;;;;;;;;;5041830;28;20369;-82
2020/12/26 12:40:32;;;;;;;17.98;14.77;;;;;;;;;;5041764;28;20442;-82
2020/12/26 12:42:59;;;;;;;18.73;14.38;;;;;;;;;;5058245;28;20371;-82
2020/12/26 12:45:25;;;;;;;16.60;13.82;;;;;;;;;;5042427;28;20390;-81
2020/12/26 12:47:51;;;;;;;18.48;14.77;;;;;;;;;;5041001;28;20403;-80
2020/12/26 12:50:17;;;;;;;18.60;13.75;;;;;;;;;;5041441;28;20405;-82
2020/12/26 12:52:43;;;;;;;16.33;13.30;;;;;;;;;;5061270;28;20355;-81
2020/12/26 12:55:09;;;;;;;19.98;14.57;;;;;;;;;;5042206;28;20368;-81
2020/12/26 12:57:35;;;;;;;19.60;14.90;;;;;;;;;;5059505;28;20455;-81
2020/12/26 13:00:02;;;;;;;18.15;13.95;;;;;;;;;;5043076;28;20366;-81
2020/12/26 13:02:28;;;;;;;18.35;14.13;;;;;;;;;;5042356;28;20967;-81
2020/12/26 13:04:56;;;;;;;16.85;13.95;;;;;;;;;;5041856;28;20510;-81
2020/12/26 13:07:23;;;;;;;19.08;14.10;;;;;;;;;;5043942;28;20382;-81
2020/12/26 13:09:49;;;;;;;20.35;15.30;;;;;;;;;;5042427;28;20912;-80
2020/12/26 13:12:15;;;;;;;18.50;14.43;;;;;;;;;;5041742;28;20380;-81
2020/12/26 13:14:41;;;;;;;17.43;14.10;;;;;;;;;;5061419;28;20836;-82
2020/12/26 13:17:07;;;;;;;18.45;13.73;;;;;;;;;;5061281;28;20350;-82
2020/12/26 13:19:33;;;;;;;18.17;13.90;;;;;;;;;;5042671;28;20364;-81
2020/12/26 13:22:02;;;;;;;18.92;14.05;;;;;;;;;;5059277;28;20447;-81
2020/12/26 13:24:28;;;;;;;17.55;13.35;;;;;;;;;;5060875;28;20401;-82
2020/12/26 13:26:53;;;;;;;18.70;14.02;;;;;;;;;;5060897;28;20364;-83
2020/12/26 13:29:19;;;;;;;17.40;12.93;;;;;;;;;;5044358;28;20412;-82
2020/12/26 13:31:45;;;;;;;17.08;12.95;;;;;;;;;;5059415;28;20367;-82
2020/12/26 13:34:11;;;;;;;16.92;12.95;;;;;;;;;;5041210;28;20375;-82
2020/12/26 13:36:38;;;;;;;15.27;12.15;;;;;;;;;;5059000;28;20362;-81
2020/12/26 13:39:08;;;;;;;18.77;12.63;;;;;;;;;;5043241;28;20463;-81
2020/12/26 13:41:34;;;;;;;16.40;12.68;;;;;;;;;;5041744;28;20765;-79
2020/12/26 13:44:00;;;;;;;15.85;12.18;;;;;;;;;;5043651;28;20398;-80
2020/12/26 13:46:26;;;;;;;17.17;13.03;;;;;;;;;;5041930;28;20543;-80
2020/12/26 13:48:52;;;;;;;15.10;12.98;;;;;;;;;;5046812;28;20386;-79
2020/12/26 13:51:22;;;;;;;16.38;12.80;;;;;;;;;;5060571;28;20786;-79
2020/12/26 13:53:48;;;;;;;18.00;13.10;;;;;;;;;;5041328;28;20719;-81
2020/12/26 13:56:14;;;;;;;17.08;13.05;;;;;;;;;;5041489;28;20382;-80
2020/12/26 13:58:40;;;;;;;17.27;13.17;;;;;;;;;;5055239;28;21017;-79
2020/12/26 14:01:06;;;;;;;18.23;13.83;;;;;;;;;;5034314;28;20942;-80
2020/12/26 14:03:32;;;;;;;16.00;13.32;;;;;;;;;;5056402;28;20387;-79
2020/12/26 14:05:58;;;;;;;14.30;12.80;;;;;;;;;;5037646;28;20428;-79
2020/12/26 14:08:24;;;;;;;15.57;13.02;;;;;;;;;;5057382;28;20411;-80
2020/12/26 14:10:50;;;;;;;16.10;12.77;;;;;;;;;;5056250;28;20414;-81
2020/12/26 14:13:16;;;;;;;16.95;13.20;;;;;;;;;;5039969;28;20360;-81
2020/12/26 14:15:43;;;;;;;17.88;13.05;;;;;;;;;;5038497;28;20491;-80
2020/12/26 14:18:09;;;;;;;21.50;15.07;;;;;;;;;;5056747;28;20409;-78
2020/12/26 14:20:39;;;;;;;18.38;13.50;;;;;;;;;;5039190;28;20371;-81
2020/12/26 14:23:05;;;;;;;16.95;13.27;;;;;;;;;;5040193;28;20833;-80
2020/12/26 14:25:31;;;;;;;19.58;14.50;;;;;;;;;;5038570;28;20453;-80